Terminal Aerodrome Forecast
Issued by NWS Austin/San Antonio, TX

Current Version | Previous Version | Text Only | Print | Product List | Glossary On
Versions: 1 2 3 4 5 6 7 8 9 10 11 12 13 14
000
FTUS44 KEWX 252300
TAFAUS
TAF
KAUS 252329Z 2600/2706 17006KT P6SM SKC
     FM260800 20003KT P6SM SKC
     FM261700 19008KT P6SM FEW050=

USA.gov is the U.S. government's official web portal to all federal, state and local government web resources and services.